createdAt,value
2022-11-14T00:01:10.661Z,16.17
2022-11-14T00:03:37.444Z,12.15
2022-11-14T00:06:08.408Z,14.05
2022-11-14T00:08:35.440Z,16.20
2022-11-14T00:11:02.724Z,14.13
2022-11-14T00:13:31.471Z,14.23
2022-11-14T00:15:58.177Z,15.90
2022-11-14T00:18:25.017Z,15.23
2022-11-14T00:20:53.165Z,14.07
2022-11-14T00:23:21.074Z,12.88
2022-11-14T00:25:48.630Z,16.27
2022-11-14T00:28:15.648Z,14.70
2022-11-14T00:30:45.855Z,16.02
2022-11-14T00:33:17.185Z,14.40
2022-11-14T00:35:54.413Z,15.25
2022-11-14T00:38:21.732Z,14.20
2022-11-14T00:40:48.481Z,15.63
2022-11-14T00:43:15.176Z,15.80
2022-11-14T00:45:46.954Z,16.70
2022-11-14T00:48:14.882Z,24.52
2022-11-14T00:50:42.217Z,24.42
2022-11-14T00:53:09.140Z,22.10
2022-11-14T00:55:35.939Z,27.63
2022-11-14T00:58:02.704Z,34.57
2022-11-14T01:00:29.548Z,48.30
2022-11-14T01:02:58.160Z,38.35
2022-11-14T01:05:25.281Z,39.78
2022-11-14T01:07:52.162Z,40.13
2022-11-14T01:10:19.538Z,47.70
2022-11-14T01:12:46.326Z,35.22
2022-11-14T01:15:13.196Z,42.05
2022-11-14T01:17:40.076Z,31.60
2022-11-14T01:20:07.220Z,35.27
2022-11-14T01:22:34.100Z,33.15
2022-11-14T01:25:00.799Z,36.97
2022-11-14T01:27:31.131Z,50.00
2022-11-14T01:29:57.924Z,49.77
2022-11-14T01:32:26.557Z,43.10
2022-11-14T01:34:53.343Z,68.10
2022-11-14T01:37:20.057Z,59.08
2022-11-14T01:39:47.222Z,40.00
2022-11-14T01:42:13.947Z,42.90
2022-11-14T01:44:47.585Z,53.70
2022-11-14T01:47:19.206Z,82.50
2022-11-14T01:49:50.098Z,67.47
2022-11-14T01:52:28.892Z,48.30
2022-11-14T01:54:59.829Z,45.90
2022-11-14T01:57:33.795Z,32.78
2022-11-14T02:00:06.615Z,35.17
2022-11-14T02:02:33.410Z,33.25
2022-11-14T02:05:07.587Z,23.30
2022-11-14T02:07:37.925Z,21.17
2022-11-14T02:10:15.757Z,27.23
2022-11-14T02:12:42.993Z,20.63
2022-11-14T02:15:10.382Z,18.85
2022-11-14T02:17:37.185Z,22.42
2022-11-14T02:20:06.914Z,21.02
2022-11-14T02:22:33.648Z,20.40
2022-11-14T02:25:00.440Z,37.05
2022-11-14T02:27:27.500Z,21.75
2022-11-14T02:29:54.244Z,21.30
2022-11-14T02:32:20.968Z,22.60
2022-11-14T02:34:47.721Z,26.05
2022-11-14T02:37:14.424Z,24.02
2022-11-14T02:39:41.242Z,19.42
2022-11-14T02:42:07.982Z,26.45
2022-11-14T02:44:34.783Z,29.60
2022-11-14T02:47:01.598Z,21.52
2022-11-14T02:49:28.622Z,22.58
2022-11-14T02:51:55.348Z,20.10
2022-11-14T02:54:22.068Z,25.77
2022-11-14T02:56:48.815Z,16.67
2022-11-14T02:59:15.615Z,26.77
2022-11-14T03:01:42.479Z,21.65
2022-11-14T03:04:09.322Z,21.90
2022-11-14T03:06:36.085Z,20.27
2022-11-14T03:09:03.109Z,17.25
2022-11-14T03:11:29.799Z,17.20
2022-11-14T03:13:56.610Z,21.88
2022-11-14T03:16:23.330Z,13.65
2022-11-14T03:18:50.110Z,18.92
2022-11-14T03:21:21.693Z,16.50
2022-11-14T03:23:48.646Z,16.55
2022-11-14T03:26:16.199Z,16.40
2022-11-14T03:28:43.528Z,14.95
2022-11-14T03:31:13.051Z,14.50
2022-11-14T03:33:40.120Z,16.85
2022-11-14T03:36:07.748Z,16.05
2022-11-14T03:38:35.095Z,18.52
2022-11-14T03:41:01.831Z,16.45
2022-11-14T03:43:33.919Z,13.10
2022-11-14T03:46:01.975Z,14.00
2022-11-14T03:48:29.889Z,15.07
2022-11-14T03:50:57.246Z,14.10
2022-11-14T03:53:24.585Z,12.35
2022-11-14T03:55:52.594Z,13.80
2022-11-14T03:58:19.567Z,12.70
2022-11-14T04:00:46.677Z,12.80
2022-11-14T04:03:13.403Z,13.70
2022-11-14T04:05:43.060Z,12.75
2022-11-14T04:08:09.756Z,14.20
2022-11-14T04:10:37.442Z,11.90
2022-11-14T04:13:05.145Z,13.20
2022-11-14T04:15:31.980Z,11.50
2022-11-14T04:17:58.851Z,12.40
2022-11-14T04:20:25.994Z,12.38
2022-11-14T04:22:52.745Z,11.90
2022-11-14T04:25:19.544Z,11.40
2022-11-14T04:27:46.274Z,11.90
2022-11-14T04:30:13.077Z,11.30
2022-11-14T04:32:39.822Z,11.70
2022-11-14T04:35:06.930Z,12.00
2022-11-14T04:37:33.647Z,80.40
2022-11-14T04:40:02.560Z,13.68
2022-11-14T04:42:29.301Z,17.83
2022-11-14T04:44:56.174Z,13.32
2022-11-14T04:47:22.916Z,12.40
2022-11-14T04:49:49.716Z,11.90
2022-11-14T04:52:16.423Z,11.68
2022-11-14T04:54:43.259Z,11.80
2022-11-14T04:57:09.973Z,11.90
2022-11-14T04:59:36.808Z,12.30
2022-11-14T05:02:03.667Z,12.20
2022-11-14T05:04:31.045Z,12.00
2022-11-14T05:06:58.003Z,12.18
2022-11-14T05:09:24.799Z,12.10
2022-11-14T05:11:51.730Z,11.90
2022-11-14T05:14:18.579Z,12.10
2022-11-14T05:16:45.277Z,12.27
2022-11-14T05:19:12.056Z,12.70
2022-11-14T05:21:38.753Z,12.70
2022-11-14T05:24:05.822Z,12.70
2022-11-14T05:26:32.544Z,12.95
2022-11-14T05:28:59.265Z,12.00
2022-11-14T05:31:26.035Z,13.02
2022-11-14T05:33:52.817Z,12.20
2022-11-14T05:36:20.166Z,12.75
2022-11-14T05:38:47.070Z,12.70
2022-11-14T05:41:16.244Z,12.68
2022-11-14T05:43:44.124Z,12.98
2022-11-14T05:46:13.347Z,12.30
2022-11-14T05:48:40.698Z,13.20
2022-11-14T05:51:10.122Z,11.98
2022-11-14T05:53:36.995Z,12.90
2022-11-14T05:56:06.642Z,12.18
2022-11-14T05:58:34.556Z,12.50
2022-11-14T06:01:13.652Z,13.07
2022-11-14T06:03:42.843Z,12.60
2022-11-14T06:06:12.126Z,13.60
2022-11-14T06:08:39.248Z,13.43
2022-11-14T06:11:24.172Z,13.07
2022-11-14T06:13:51.057Z,13.30
2022-11-14T06:16:19.575Z,13.45
2022-11-14T06:18:47.336Z,13.60
2022-11-14T06:21:17.188Z,12.85
2022-11-14T06:23:44.763Z,13.10
2022-11-14T06:26:35.851Z,12.75
2022-11-14T06:29:02.719Z,12.77
2022-11-14T06:31:29.402Z,13.50
2022-11-14T06:33:56.879Z,13.30
2022-11-14T06:36:23.862Z,14.18
2022-11-14T06:38:50.583Z,12.57
2022-11-14T06:41:21.936Z,13.10
2022-11-14T06:43:54.097Z,13.38
2022-11-14T06:46:22.210Z,12.60
2022-11-14T06:48:49.824Z,13.05
2022-11-14T06:51:17.029Z,14.10
2022-11-14T06:53:44.536Z,14.35
2022-11-14T06:56:13.701Z,13.77
2022-11-14T06:58:46.181Z,13.20
2022-11-14T07:01:22.030Z,13.68
2022-11-14T07:03:49.315Z,12.70
2022-11-14T07:06:18.973Z,13.40
2022-11-14T07:08:45.785Z,12.70
2022-11-14T07:11:25.356Z,12.82
2022-11-14T07:13:54.173Z,12.75
2022-11-14T07:16:24.291Z,12.70
2022-11-14T07:18:51.055Z,13.23
2022-11-14T07:21:17.772Z,12.32
2022-11-14T07:23:44.474Z,12.80
2022-11-14T07:26:11.893Z,13.25
2022-11-14T07:28:41.388Z,13.80
2022-11-14T07:31:12.335Z,13.18
2022-11-14T07:33:39.583Z,14.18
2022-11-14T07:36:06.851Z,12.77
2022-11-14T07:38:34.891Z,12.80
2022-11-14T07:41:07.194Z,13.50
2022-11-14T07:43:33.987Z,14.68
2022-11-14T07:46:01.973Z,13.65
2022-11-14T07:48:30.389Z,13.88
2022-11-14T07:51:05.782Z,13.27
2022-11-14T07:53:32.842Z,12.80
2022-11-14T07:56:05.828Z,14.00
2022-11-14T07:58:35.327Z,13.10
2022-11-14T08:01:03.209Z,13.20
2022-11-14T08:03:30.199Z,12.65
2022-11-14T08:06:06.196Z,12.60
2022-11-14T08:08:33.368Z,13.18
2022-11-14T08:11:00.671Z,13.50
2022-11-14T08:13:33.115Z,14.48
2022-11-14T08:16:10.852Z,12.98
2022-11-14T08:18:39.590Z,13.00
2022-11-14T08:21:06.893Z,13.07
2022-11-14T08:23:33.637Z,13.80
2022-11-14T08:26:00.577Z,12.80
2022-11-14T08:28:27.966Z,12.90
2022-11-14T08:31:03.524Z,13.10
2022-11-14T08:33:31.058Z,14.10
2022-11-14T08:36:04.724Z,13.27
2022-11-14T08:38:32.987Z,13.30
2022-11-14T08:41:03.408Z,13.70
2022-11-14T08:43:31.687Z,13.90
2022-11-14T08:46:01.828Z,15.05
2022-11-14T08:48:30.135Z,12.60
2022-11-14T08:50:57.466Z,13.02
2022-11-14T08:53:24.535Z,15.68
2022-11-14T08:55:51.224Z,13.88
2022-11-14T08:58:17.952Z,13.98
2022-11-14T09:00:44.675Z,16.65
2022-11-14T09:03:16.038Z,14.15
2022-11-14T09:05:43.509Z,15.98
2022-11-14T09:08:10.253Z,13.63
2022-11-14T09:10:37.890Z,13.07
2022-11-14T09:13:04.573Z,13.98
2022-11-14T09:15:31.522Z,13.48
2022-11-14T09:17:58.652Z,14.65
2022-11-14T09:20:31.662Z,14.50
2022-11-14T09:23:01.229Z,14.50
2022-11-14T09:25:29.573Z,14.50
2022-11-14T09:27:57.155Z,16.27
2022-11-14T09:30:24.097Z,15.80
2022-11-14T09:32:50.838Z,14.57
2022-11-14T09:35:17.976Z,14.40
2022-11-14T09:37:44.707Z,16.05
2022-11-14T09:40:14.362Z,16.30
2022-11-14T09:42:59.405Z,17.42
2022-11-14T09:45:27.012Z,15.10
2022-11-14T09:48:04.683Z,16.17
2022-11-14T09:50:37.031Z,14.75
2022-11-14T09:53:10.512Z,14.50
2022-11-14T09:55:37.664Z,15.82
2022-11-14T09:58:05.090Z,14.60
2022-11-14T10:00:56.787Z,15.80
2022-11-14T10:04:05.837Z,15.50
2022-11-14T10:07:16.314Z,16.87
2022-11-14T10:09:49.320Z,15.45
2022-11-14T10:12:36.308Z,17.33
2022-11-14T10:15:18.898Z,16.48
2022-11-14T10:18:03.015Z,15.20
2022-11-14T10:21:10.758Z,16.10
2022-11-14T10:23:55.948Z,16.02
2022-11-14T10:26:31.397Z,15.50
2022-11-14T10:29:22.435Z,16.70
2022-11-14T10:32:22.427Z,18.08
2022-11-14T10:35:14.985Z,16.42
2022-11-14T10:38:07.671Z,15.55
2022-11-14T10:41:19.271Z,15.63
2022-11-14T10:43:55.899Z,18.10
2022-11-14T10:46:39.286Z,15.80
2022-11-14T10:49:33.562Z,16.80
2022-11-14T10:52:04.444Z,15.38
2022-11-14T10:54:46.561Z,14.70
2022-11-14T10:57:19.319Z,17.00
2022-11-14T10:59:47.224Z,15.20
2022-11-14T11:02:14.748Z,15.25
2022-11-14T11:04:43.611Z,16.48
2022-11-14T11:07:10.611Z,17.13
2022-11-14T11:09:58.720Z,17.60
2022-11-14T11:12:43.632Z,16.83
2022-11-14T11:15:16.378Z,16.30
2022-11-14T11:18:30.081Z,17.77
2022-11-14T11:21:21.474Z,15.10
2022-11-14T11:23:52.513Z,16.05
2022-11-14T11:26:23.420Z,15.80
2022-11-14T11:29:16.823Z,17.70
2022-11-14T11:31:54.992Z,14.52
2022-11-14T11:34:26.581Z,15.73
2022-11-14T11:37:13.783Z,15.50
2022-11-14T11:39:45.340Z,15.73
2022-11-14T11:42:58.824Z,16.67
2022-11-14T11:45:19.194Z,15.95
2022-11-14T11:48:03.535Z,16.08
2022-11-14T11:50:30.428Z,15.80
2022-11-14T11:53:22.600Z,15.43
2022-11-14T11:55:59.386Z,16.10
2022-11-14T11:58:33.720Z,20.50
2022-11-14T12:01:00.651Z,17.67
2022-11-14T12:03:28.051Z,18.03
2022-11-14T12:06:15.819Z,17.35
2022-11-14T12:09:08.142Z,16.50
2022-11-14T12:11:37.995Z,15.27
2022-11-14T12:14:42.269Z,18.13
2022-11-14T12:17:33.252Z,15.30
2022-11-14T12:20:45.598Z,16.35
2022-11-14T12:23:44.469Z,17.05
2022-11-14T12:26:43.046Z,18.35
2022-11-14T12:29:28.456Z,19.98
2022-11-14T12:32:05.152Z,20.10
2022-11-14T12:34:38.144Z,17.33
2022-11-14T12:37:28.172Z,18.23
2022-11-14T12:40:07.416Z,15.15
2022-11-14T12:42:35.274Z,15.33
2022-11-14T12:45:02.021Z,15.18
2022-11-14T12:47:29.025Z,16.60
2022-11-14T12:49:56.601Z,18.35
2022-11-14T12:52:46.280Z,16.85
2022-11-14T12:55:25.116Z,16.02
2022-11-14T12:58:00.867Z,17.52
2022-11-14T13:00:28.632Z,17.83
2022-11-14T13:03:13.814Z,17.90
2022-11-14T13:06:08.177Z,18.33
2022-11-14T13:08:43.828Z,16.48
2022-11-14T13:12:01.567Z,16.10
2022-11-14T13:14:48.692Z,15.60
2022-11-14T13:17:36.768Z,15.35
2022-11-14T13:20:46.961Z,15.05
2022-11-14T13:23:25.659Z,15.55
2022-11-14T13:26:10.694Z,14.95
2022-11-14T13:28:51.191Z,16.85
2022-11-14T13:31:43.220Z,33.10
2022-11-14T13:34:47.748Z,28.17
2022-11-14T13:37:36.170Z,21.02
2022-11-14T13:40:11.847Z,20.42
2022-11-14T13:42:52.844Z,19.83
2022-11-14T13:45:32.503Z,21.58
2022-11-14T13:48:20.936Z,20.05
2022-11-14T13:50:52.624Z,18.33
2022-11-14T13:53:24.477Z,19.37
2022-11-14T13:56:04.593Z,18.27
2022-11-14T13:58:43.671Z,16.80
2022-11-14T14:01:33.599Z,15.60
2022-11-14T14:04:27.382Z,14.68
2022-11-14T14:07:03.158Z,15.90
2022-11-14T14:09:58.121Z,19.95
2022-11-14T14:12:36.935Z,18.50
2022-11-14T14:15:27.166Z,21.20
2022-11-14T14:18:14.888Z,21.23
2022-11-14T14:20:52.001Z,23.73
2022-11-14T14:23:27.798Z,18.70
2022-11-14T14:26:18.045Z,19.15
2022-11-14T14:28:56.356Z,16.17
2022-11-14T14:31:23.807Z,16.23
2022-11-14T14:33:52.300Z,15.98
2022-11-14T14:36:22.160Z,14.55
2022-11-14T14:38:49.931Z,12.90
2022-11-14T14:41:19.530Z,13.50
2022-11-14T14:43:55.181Z,13.10
2022-11-14T14:46:30.992Z,12.60
2022-11-14T14:49:01.672Z,12.88
2022-11-14T14:51:36.587Z,12.75
2022-11-14T14:54:03.623Z,14.30
2022-11-14T14:56:31.009Z,13.20
2022-11-14T14:58:57.833Z,13.20
2022-11-14T15:01:32.742Z,13.40
2022-11-14T15:04:08.925Z,13.70
2022-11-14T15:06:38.498Z,14.27
2022-11-14T15:09:13.868Z,12.20
2022-11-14T15:11:43.244Z,12.30
2022-11-14T15:14:14.972Z,12.02
2022-11-14T15:16:42.936Z,12.37
2022-11-14T15:19:14.886Z,12.80
2022-11-14T15:21:43.210Z,11.93
2022-11-14T15:24:19.716Z,12.00
2022-11-14T15:26:52.153Z,12.97
2022-11-14T15:29:24.472Z,13.40
2022-11-14T15:31:58.668Z,13.30
2022-11-14T15:34:40.395Z,15.20
2022-11-14T15:37:18.845Z,17.35
2022-11-14T15:39:46.869Z,24.52
2022-11-14T15:42:26.530Z,15.75
2022-11-14T15:44:53.350Z,14.00
2022-11-14T15:47:28.339Z,14.75
2022-11-14T15:50:03.959Z,13.00
2022-11-14T15:52:32.892Z,12.10
2022-11-14T15:54:59.757Z,12.80
2022-11-14T15:57:26.515Z,12.48
2022-11-14T15:59:53.232Z,12.05
2022-11-14T16:02:23.748Z,12.10
2022-11-14T16:04:52.089Z,14.50
2022-11-14T16:07:20.131Z,12.33
2022-11-14T16:09:47.359Z,12.93
2022-11-14T16:12:14.577Z,12.90
2022-11-14T16:14:41.956Z,12.82
2022-11-14T16:17:17.236Z,18.40
2022-11-14T16:19:44.443Z,12.95
2022-11-14T16:22:17.498Z,13.40
2022-11-14T16:24:44.507Z,12.05
2022-11-14T16:27:11.269Z,13.23
2022-11-14T16:29:38.061Z,13.13
2022-11-14T16:32:04.986Z,12.23
2022-11-14T16:34:31.808Z,12.70
2022-11-14T16:37:00.876Z,11.75
2022-11-14T16:39:27.999Z,12.40
2022-11-14T16:42:01.623Z,13.93
2022-11-14T16:44:28.631Z,12.25
2022-11-14T16:46:55.555Z,12.40
2022-11-14T16:49:22.358Z,11.50
2022-11-14T16:51:50.992Z,12.88
2022-11-14T16:54:19.403Z,11.90
2022-11-14T16:56:47.036Z,13.88
2022-11-14T16:59:14.113Z,15.05
2022-11-14T17:01:41.000Z,12.32
2022-11-14T17:04:07.823Z,12.55
2022-11-14T17:06:34.619Z,12.03
2022-11-14T17:09:02.406Z,12.90
2022-11-14T17:11:29.424Z,12.60
2022-11-14T17:13:56.772Z,12.70
2022-11-14T17:16:23.967Z,12.80
2022-11-14T17:18:54.936Z,13.73
2022-11-14T17:21:22.583Z,13.20
2022-11-14T17:24:01.473Z,12.48
2022-11-14T17:26:29.124Z,13.80
2022-11-14T17:28:56.408Z,14.15
2022-11-14T17:31:23.229Z,14.75
2022-11-14T17:33:54.830Z,12.55
2022-11-14T17:36:23.028Z,12.20
2022-11-14T17:38:49.843Z,11.90
2022-11-14T17:41:16.653Z,12.77
2022-11-14T17:43:44.125Z,12.02
2022-11-14T17:46:16.004Z,13.53
2022-11-14T17:48:44.606Z,15.02
2022-11-14T17:51:14.291Z,16.48
2022-11-14T17:53:41.667Z,16.52
2022-11-14T17:56:14.692Z,14.35
2022-11-14T17:58:41.943Z,14.82
2022-11-14T18:01:13.973Z,14.73
2022-11-14T18:03:41.254Z,13.70
2022-11-14T18:06:10.124Z,15.90
2022-11-14T18:08:37.053Z,18.45
2022-11-14T18:11:06.276Z,15.77
2022-11-14T18:13:33.777Z,25.53
2022-11-14T18:16:05.670Z,20.23
2022-11-14T18:18:35.049Z,13.00
2022-11-14T18:21:16.938Z,12.30
2022-11-14T18:23:44.407Z,13.43
2022-11-14T18:26:18.409Z,12.10
2022-11-14T18:28:45.429Z,13.20
2022-11-14T18:31:12.446Z,13.23
2022-11-14T18:33:40.193Z,12.48
2022-11-14T18:36:16.396Z,12.40
2022-11-14T18:38:44.217Z,13.20
2022-11-14T18:41:14.645Z,13.50
2022-11-14T18:43:41.759Z,13.18
2022-11-14T18:46:09.824Z,13.60
2022-11-14T18:48:38.416Z,22.13
2022-11-14T18:51:08.007Z,23.48
2022-11-14T18:53:36.178Z,40.20
2022-11-14T18:56:08.392Z,59.25
2022-11-14T18:58:39.498Z,13.50
2022-11-14T19:01:13.039Z,13.35
2022-11-14T19:03:40.103Z,14.60
2022-11-14T19:06:09.216Z,15.20
2022-11-14T19:08:40.715Z,14.70
2022-11-14T19:11:33.440Z,15.15
2022-11-14T19:14:06.027Z,18.90
2022-11-14T19:16:34.786Z,18.27
2022-11-14T19:19:02.413Z,15.87
2022-11-14T19:21:29.821Z,14.45
2022-11-14T19:23:59.421Z,13.60
2022-11-14T19:26:27.289Z,13.43
2022-11-14T19:28:54.444Z,14.45
2022-11-14T19:31:22.846Z,13.73
2022-11-14T19:33:50.189Z,13.30
2022-11-14T19:36:38.516Z,14.00
2022-11-14T19:39:06.808Z,12.90
2022-11-14T19:41:33.640Z,13.18
2022-11-14T19:44:02.558Z,15.27
2022-11-14T19:46:29.324Z,18.03
2022-11-14T19:49:00.358Z,18.45
2022-11-14T19:51:28.676Z,13.43
2022-11-14T19:53:57.235Z,14.27
2022-11-14T19:56:24.916Z,13.48
2022-11-14T19:58:53.533Z,13.48
2022-11-14T20:01:23.194Z,13.00
2022-11-14T20:03:51.841Z,13.30
2022-11-14T20:06:23.214Z,12.43
2022-11-14T20:08:50.856Z,13.30
2022-11-14T20:11:18.328Z,14.10
2022-11-14T20:13:45.349Z,13.65
2022-11-14T20:16:20.247Z,13.93
2022-11-14T20:18:59.121Z,13.43
2022-11-14T20:21:29.219Z,13.50
2022-11-14T20:23:56.209Z,16.30
2022-11-14T20:26:23.834Z,14.57
2022-11-14T20:28:52.926Z,13.73
2022-11-14T20:31:25.791Z,12.70
2022-11-14T20:33:54.030Z,12.70
2022-11-14T20:36:25.205Z,14.68
2022-11-14T20:38:52.972Z,12.27
2022-11-14T20:41:20.705Z,12.10
2022-11-14T20:43:47.899Z,13.70
2022-11-14T20:46:17.163Z,13.43
2022-11-14T20:48:44.838Z,13.30
2022-11-14T20:51:17.433Z,13.35
2022-11-14T20:53:44.805Z,12.82
2022-11-14T20:56:12.784Z,12.60
2022-11-14T20:58:44.002Z,12.23
2022-11-14T21:01:11.677Z,14.15
2022-11-14T21:03:38.775Z,12.00
2022-11-14T21:06:07.731Z,13.23
2022-11-14T21:08:38.402Z,12.85
2022-11-14T21:11:08.229Z,12.87
2022-11-14T21:13:55.400Z,12.90
2022-11-14T21:16:24.625Z,12.00
2022-11-14T21:18:55.525Z,12.80
2022-11-14T21:21:24.107Z,12.00
2022-11-14T21:23:51.316Z,11.82
2022-11-14T21:26:24.103Z,12.90
2022-11-14T21:28:54.567Z,11.77
2022-11-14T21:31:21.331Z,12.43
2022-11-14T21:33:49.369Z,13.10
2022-11-14T21:36:43.363Z,12.00
2022-11-14T21:39:04.607Z,12.63
2022-11-14T21:41:32.282Z,13.50
2022-11-14T21:44:01.930Z,13.18
2022-11-14T21:46:29.195Z,12.13
2022-11-14T21:48:57.413Z,12.38
2022-11-14T21:51:26.657Z,12.40
2022-11-14T21:53:55.796Z,11.73
2022-11-14T21:56:25.450Z,12.15
2022-11-14T21:59:12.444Z,11.83
2022-11-14T22:02:00.107Z,12.40
2022-11-14T22:04:26.942Z,11.93
2022-11-14T22:06:53.803Z,11.88
2022-11-14T22:09:21.102Z,13.30
2022-11-14T22:11:47.990Z,12.20
2022-11-14T22:14:14.793Z,12.70
2022-11-14T22:16:41.488Z,14.48
2022-11-14T22:19:08.335Z,12.77
2022-11-14T22:21:35.094Z,13.82
2022-11-14T22:24:01.900Z,12.97
2022-11-14T22:26:28.854Z,13.18
2022-11-14T22:28:55.674Z,12.50
2022-11-14T22:31:23.973Z,12.80
2022-11-14T22:33:52.902Z,14.33
2022-11-14T22:36:22.327Z,12.50
2022-11-14T22:38:49.632Z,12.50
2022-11-14T22:41:17.763Z,12.10
2022-11-14T22:43:45.508Z,12.57
2022-11-14T22:46:17.654Z,12.73
2022-11-14T22:48:46.012Z,13.17
2022-11-14T22:51:13.940Z,12.65
2022-11-14T22:53:40.980Z,12.77
2022-11-14T22:56:10.540Z,12.77
2022-11-14T22:58:41.294Z,14.00
2022-11-14T23:01:28.212Z,12.30
2022-11-14T23:03:58.113Z,13.95
2022-11-14T23:06:25.481Z,14.43
2022-11-14T23:08:52.722Z,13.38
2022-11-14T23:11:23.036Z,13.48
2022-11-14T23:13:52.158Z,12.47
2022-11-14T23:16:21.779Z,14.00
2022-11-14T23:18:49.115Z,13.13
2022-11-14T23:21:19.264Z,13.38
2022-11-14T23:23:46.253Z,12.57
2022-11-14T23:26:15.867Z,12.88
2022-11-14T23:28:43.315Z,12.90
2022-11-14T23:31:11.500Z,12.73
2022-11-14T23:33:38.267Z,12.45
2022-11-14T23:36:05.484Z,13.52
2022-11-14T23:38:32.199Z,12.40
2022-11-14T23:41:00.876Z,12.13
2022-11-14T23:43:28.596Z,12.10
2022-11-14T23:45:55.710Z,13.40
2022-11-14T23:48:22.991Z,13.10
2022-11-14T23:50:54.620Z,13.68
2022-11-14T23:53:21.821Z,14.48
2022-11-14T23:55:56.513Z,12.90
2022-11-14T23:58:24.241Z,12.73
